createdAt,value
2018-08-07T00:01:50.215Z,17.70
2018-08-07T00:04:19.114Z,17.80
2018-08-07T00:06:48.014Z,17.70
2018-08-07T00:09:16.907Z,17.70
2018-08-07T00:11:45.796Z,17.70
2018-08-07T00:14:14.706Z,17.60
2018-08-07T00:16:43.594Z,17.60
2018-08-07T00:19:12.542Z,17.60
2018-08-07T00:21:41.451Z,17.60
2018-08-07T00:24:10.344Z,17.60
2018-08-07T00:26:39.242Z,17.50
2018-08-07T00:29:08.120Z,17.50
2018-08-07T00:31:37.028Z,17.60
2018-08-07T00:34:05.911Z,17.50
2018-08-07T00:36:34.803Z,17.50
2018-08-07T00:39:04.295Z,17.50
2018-08-07T00:41:33.184Z,17.60
2018-08-07T00:44:02.067Z,17.50
2018-08-07T00:46:30.976Z,17.40
2018-08-07T00:48:59.858Z,17.40
2018-08-07T00:51:28.759Z,17.40
2018-08-07T00:54:03.974Z,17.40
2018-08-07T00:56:32.871Z,17.40
2018-08-07T00:59:01.764Z,17.40
2018-08-07T01:01:30.702Z,17.40
2018-08-07T01:03:59.582Z,17.40
2018-08-07T01:06:28.891Z,17.40
2018-08-07T01:08:57.772Z,17.40
2018-08-07T01:11:26.663Z,17.40
2018-08-07T01:13:55.535Z,17.30
2018-08-07T01:16:24.441Z,17.30
2018-08-07T01:18:53.335Z,17.30
2018-08-07T01:21:22.226Z,17.30
2018-08-07T01:23:51.135Z,17.40
2018-08-07T01:26:20.026Z,17.40
2018-08-07T01:28:48.921Z,17.40
2018-08-07T01:31:17.827Z,17.40
2018-08-07T01:33:46.715Z,17.50
2018-08-07T01:36:15.607Z,17.50
2018-08-07T01:38:44.499Z,17.40
2018-08-07T01:41:13.399Z,17.40
2018-08-07T01:43:42.302Z,17.20
2018-08-07T01:46:11.205Z,17.20
2018-08-07T01:48:40.075Z,17.20
2018-08-07T01:51:08.954Z,17.10
2018-08-07T01:53:37.859Z,17.10
2018-08-07T01:56:06.763Z,17.10
2018-08-07T01:58:35.657Z,17.10
2018-08-07T02:01:04.718Z,17.10
2018-08-07T02:03:33.614Z,17.20
2018-08-07T02:06:02.495Z,17.30
2018-08-07T02:08:31.385Z,17.30
2018-08-07T02:11:00.271Z,17.20
2018-08-07T02:13:29.163Z,17.30
2018-08-07T02:15:58.048Z,17.30
2018-08-07T02:18:26.934Z,17.30
2018-08-07T02:20:55.832Z,17.30
2018-08-07T02:23:24.714Z,17.30
2018-08-07T02:25:53.854Z,17.20
2018-08-07T02:28:22.754Z,17.20
2018-08-07T02:30:51.651Z,17.20
2018-08-07T02:33:20.603Z,17.20
2018-08-07T02:35:49.483Z,17.10
2018-08-07T02:38:18.379Z,17.10
2018-08-07T02:40:47.690Z,17.00
2018-08-07T02:43:16.600Z,17.00
2018-08-07T02:45:45.480Z,16.90
2018-08-07T02:48:14.386Z,16.90
2018-08-07T02:50:43.270Z,16.80
2018-08-07T02:53:12.177Z,16.80
2018-08-07T02:55:41.049Z,16.70
2018-08-07T03:00:43.372Z,16.70
2018-08-07T03:03:12.416Z,16.60
2018-08-07T03:05:41.304Z,16.60
2018-08-07T03:08:10.193Z,16.50
2018-08-07T03:10:39.093Z,16.50
2018-08-07T03:13:07.986Z,16.50
2018-08-07T03:15:36.855Z,16.50
2018-08-07T03:18:06.068Z,16.60
2018-08-07T03:20:34.939Z,16.50
2018-08-07T03:23:03.871Z,16.50
2018-08-07T03:25:32.768Z,16.40
2018-08-07T03:28:01.672Z,16.50
2018-08-07T03:30:30.538Z,16.40
2018-08-07T03:33:02.526Z,16.30
2018-08-07T03:35:31.412Z,16.30
2018-08-07T03:38:00.311Z,16.20
2018-08-07T03:40:29.181Z,16.20
2018-08-07T03:42:58.113Z,16.20
2018-08-07T03:45:26.962Z,16.20
2018-08-07T03:47:55.854Z,16.30
2018-08-07T03:50:24.755Z,16.30
2018-08-07T03:52:53.649Z,16.30
2018-08-07T03:55:22.519Z,16.30
2018-08-07T03:57:51.406Z,16.10
2018-08-07T04:00:21.729Z,16.10
2018-08-07T04:02:50.670Z,16.10
2018-08-07T04:05:19.586Z,16.10
2018-08-07T04:07:48.480Z,16.10
2018-08-07T04:10:18.511Z,16.00
2018-08-07T04:12:47.754Z,15.90
2018-08-07T04:15:17.780Z,15.90
2018-08-07T04:17:46.971Z,15.80
2018-08-07T04:20:17.350Z,15.80
2018-08-07T04:22:46.258Z,15.70
2018-08-07T04:25:15.257Z,15.60
2018-08-07T04:27:44.138Z,15.80
2018-08-07T04:30:15.392Z,15.90
2018-08-07T04:32:44.537Z,15.90
2018-08-07T04:35:14.396Z,16.00
2018-08-07T04:37:43.574Z,16.10
2018-08-07T04:40:12.554Z,16.10
2018-08-07T04:42:42.176Z,16.20
2018-08-07T04:45:13.824Z,16.10
2018-08-07T04:47:43.410Z,16.20
2018-08-07T04:50:12.305Z,16.30
2018-08-07T04:52:41.395Z,16.30
2018-08-07T04:55:10.575Z,16.40
2018-08-07T04:57:39.517Z,16.50
2018-08-07T05:00:16.393Z,16.50
2018-08-07T05:02:46.177Z,16.60
2018-08-07T05:05:15.165Z,16.70
2018-08-07T05:07:44.106Z,16.80
2018-08-07T05:10:15.046Z,16.90
2018-08-07T05:12:44.726Z,17.00
2018-08-07T05:15:13.784Z,17.00
2018-08-07T05:17:44.035Z,17.10
2018-08-07T05:20:12.955Z,17.10
2018-08-07T05:22:41.862Z,17.20
2018-08-07T05:25:11.510Z,17.20
2018-08-07T05:27:40.475Z,17.30
2018-08-07T05:30:13.035Z,17.40
2018-08-07T05:32:42.025Z,17.50
2018-08-07T05:35:11.575Z,17.70
2018-08-07T05:37:40.454Z,17.80
2018-08-07T05:40:10.270Z,17.90
2018-08-07T05:42:39.491Z,18.00
2018-08-07T05:45:09.750Z,18.20
2018-08-07T05:47:38.653Z,18.40
2018-08-07T05:50:11.044Z,18.60
2018-08-07T05:52:39.935Z,18.70
2018-08-07T05:55:09.325Z,18.90
2018-08-07T05:57:38.418Z,19.10
2018-08-07T06:00:24.083Z,19.30
2018-08-07T06:02:52.984Z,19.50
2018-08-07T06:05:22.013Z,19.70
2018-08-07T06:07:50.912Z,19.80
2018-08-07T06:10:20.348Z,20.00
2018-08-07T06:12:49.231Z,20.10
2018-08-07T06:15:18.169Z,20.20
2018-08-07T06:17:47.484Z,20.40
2018-08-07T06:20:16.374Z,20.50
2018-08-07T06:22:45.283Z,20.70
2018-08-07T06:25:14.183Z,20.90
2018-08-07T06:27:43.067Z,21.00
2018-08-07T06:30:14.991Z,21.30
2018-08-07T06:32:44.285Z,21.50
2018-08-07T06:35:13.243Z,21.70
2018-08-07T06:37:42.266Z,22.00
2018-08-07T06:40:12.067Z,22.20
2018-08-07T06:42:40.958Z,22.40
2018-08-07T06:45:11.346Z,22.70
2018-08-07T06:47:40.226Z,23.00
2018-08-07T06:50:13.571Z,23.20
2018-08-07T06:52:42.752Z,23.50
2018-08-07T06:55:11.967Z,23.70
2018-08-07T06:57:41.147Z,24.00
2018-08-07T07:00:15.268Z,24.30
2018-08-07T07:02:44.198Z,24.70
2018-08-07T07:05:13.131Z,25.00
2018-08-07T07:07:42.014Z,25.00
2018-08-07T07:10:12.259Z,25.20
2018-08-07T07:12:42.047Z,25.50
2018-08-07T07:15:12.294Z,25.70
2018-08-07T07:17:41.579Z,25.90
2018-08-07T07:20:12.750Z,26.10
2018-08-07T07:22:43.043Z,26.40
2018-08-07T07:25:12.247Z,26.50
2018-08-07T07:27:41.654Z,26.90
2018-08-07T07:30:15.341Z,27.10
2018-08-07T07:32:45.566Z,27.50
2018-08-07T07:35:14.987Z,27.90
2018-08-07T07:37:44.051Z,28.00
2018-08-07T07:40:12.994Z,28.20
2018-08-07T07:42:41.916Z,28.30
2018-08-07T07:45:13.183Z,28.50
2018-08-07T07:47:42.203Z,28.50
2018-08-07T07:50:13.384Z,28.70
2018-08-07T07:52:42.917Z,29.00
2018-08-07T07:55:13.096Z,29.20
2018-08-07T07:57:42.007Z,29.50
2018-08-07T08:00:17.830Z,29.40
2018-08-07T08:02:46.995Z,29.60
2018-08-07T08:05:15.888Z,29.90
2018-08-07T08:07:44.757Z,30.00
2018-08-07T08:10:13.653Z,30.30
2018-08-07T08:12:42.560Z,30.60
2018-08-07T08:15:14.701Z,30.60
2018-08-07T08:17:44.618Z,30.80
2018-08-07T08:20:15.549Z,30.80
2018-08-07T08:22:44.455Z,30.70
2018-08-07T08:25:13.355Z,30.70
2018-08-07T08:27:42.303Z,30.50
2018-08-07T08:30:13.152Z,30.50
2018-08-07T08:32:42.358Z,30.50
2018-08-07T08:35:12.928Z,30.50
2018-08-07T08:37:42.396Z,30.10
2018-08-07T08:40:13.163Z,30.10
2018-08-07T08:42:42.116Z,30.50
2018-08-07T08:45:15.573Z,30.70
2018-08-07T08:47:45.272Z,30.90
2018-08-07T08:50:15.694Z,31.40
2018-08-07T08:52:44.866Z,31.90
2018-08-07T08:55:13.916Z,32.20
2018-08-07T08:57:43.578Z,32.40
2018-08-07T09:00:30.542Z,32.60
2018-08-07T09:03:00.723Z,32.80
2018-08-07T09:05:29.671Z,33.20
2018-08-07T09:07:58.554Z,33.60
2018-08-07T09:10:29.014Z,33.70
2018-08-07T09:12:58.731Z,33.90
2018-08-07T09:15:27.624Z,34.00
2018-08-07T09:17:56.553Z,34.20
2018-08-07T09:20:26.970Z,34.30
2018-08-07T09:22:56.190Z,34.40
2018-08-07T09:25:26.258Z,34.50
2018-08-07T09:27:55.136Z,34.90
2018-08-07T09:30:25.278Z,35.10
2018-08-07T09:32:55.054Z,34.90
2018-08-07T09:35:24.302Z,34.80
2018-08-07T09:37:53.639Z,35.10
2018-08-07T09:40:23.001Z,35.40
2018-08-07T09:42:53.230Z,35.60
2018-08-07T09:45:24.912Z,35.60
2018-08-07T09:47:53.811Z,35.80
2018-08-07T09:50:22.779Z,35.90
2018-08-07T09:52:51.758Z,35.90
2018-08-07T09:55:20.658Z,36.00
2018-08-07T09:57:49.570Z,36.10
2018-08-07T10:00:24.925Z,36.50
2018-08-07T10:02:57.555Z,36.60
2018-08-07T10:05:27.858Z,36.90
2018-08-07T10:07:56.659Z,36.80
2018-08-07T10:10:25.818Z,36.70
2018-08-07T10:12:54.720Z,36.80
2018-08-07T10:15:23.608Z,36.80
2018-08-07T10:17:52.525Z,37.00
2018-08-07T10:20:21.430Z,36.90
2018-08-07T10:22:50.337Z,37.10
2018-08-07T10:25:19.902Z,37.00
2018-08-07T10:27:49.294Z,37.10
2018-08-07T10:30:21.601Z,36.90
2018-08-07T10:32:51.151Z,36.60
2018-08-07T10:35:20.054Z,36.50
2018-08-07T10:37:49.079Z,36.20
2018-08-07T10:40:20.028Z,36.30
2018-08-07T10:42:48.922Z,36.30
2018-08-07T10:45:19.341Z,36.80
2018-08-07T10:47:48.312Z,37.20
2018-08-07T10:50:21.290Z,37.20
2018-08-07T10:52:50.591Z,37.00
2018-08-07T10:55:20.837Z,36.10
2018-08-07T10:57:50.972Z,36.10
2018-08-07T11:00:21.190Z,36.50
2018-08-07T11:02:50.948Z,36.80
2018-08-07T11:05:20.311Z,36.90
2018-08-07T11:07:49.240Z,37.10
2018-08-07T11:10:18.583Z,37.10
2018-08-07T11:12:47.462Z,37.30
2018-08-07T11:15:19.607Z,36.50
2018-08-07T11:17:49.401Z,36.50
2018-08-07T11:20:18.339Z,36.60
2018-08-07T11:22:48.300Z,36.90
2018-08-07T11:25:18.325Z,37.20
2018-08-07T11:27:47.218Z,37.40
2018-08-07T11:30:19.165Z,37.30
2018-08-07T11:32:48.286Z,36.90
2018-08-07T11:35:17.551Z,36.60
2018-08-07T11:37:47.655Z,36.80
2018-08-07T11:40:18.322Z,37.00
2018-08-07T11:42:48.147Z,37.40
2018-08-07T11:45:18.463Z,37.10
2018-08-07T11:47:47.398Z,36.90
2018-08-07T11:50:21.585Z,37.10
2018-08-07T11:53:18.206Z,37.40
2018-08-07T11:55:46.360Z,37.50
2018-08-07T11:58:14.486Z,37.20
2018-08-07T12:00:42.615Z,37.20
2018-08-07T12:03:11.584Z,37.10
2018-08-07T12:05:39.714Z,36.70
2018-08-07T12:08:08.136Z,36.30
2018-08-07T12:10:36.230Z,36.40
2018-08-07T12:13:04.367Z,36.70
2018-08-07T12:15:32.505Z,37.00
2018-08-07T12:18:00.629Z,37.00
2018-08-07T12:20:28.848Z,37.00
2018-08-07T12:22:56.991Z,37.20
2018-08-07T12:25:25.610Z,37.50
2018-08-07T12:27:53.730Z,37.60
2018-08-07T12:30:23.237Z,37.20
2018-08-07T12:32:51.410Z,37.00
2018-08-07T12:35:19.675Z,37.30
2018-08-07T12:37:48.027Z,37.50
2018-08-07T12:40:23.404Z,37.80
2018-08-07T12:42:52.882Z,37.90
2018-08-07T12:45:21.023Z,37.70
2018-08-07T12:47:49.647Z,37.80
2018-08-07T12:50:18.239Z,37.70
2018-08-07T12:52:46.362Z,37.90
2018-08-07T12:55:17.146Z,38.00
2018-08-07T12:57:45.815Z,38.20
2018-08-07T13:00:15.699Z,38.40
2018-08-07T13:02:43.881Z,38.20
2018-08-07T13:05:12.423Z,38.40
2018-08-07T13:07:41.105Z,38.30
2018-08-07T13:10:12.237Z,38.40
2018-08-07T13:12:40.905Z,38.20
2018-08-07T13:15:10.062Z,38.30
2018-08-07T13:17:38.375Z,38.20
2018-08-07T13:20:07.462Z,37.80
2018-08-07T13:22:36.450Z,37.90
2018-08-07T13:25:05.285Z,38.00
2018-08-07T13:27:33.410Z,38.00
2018-08-07T13:30:01.547Z,38.00
2018-08-07T13:32:29.674Z,37.90
2018-08-07T13:34:57.798Z,37.70
2018-08-07T13:37:26.082Z,37.40
2018-08-07T13:39:54.190Z,37.20
2018-08-07T13:42:22.477Z,36.50
2018-08-07T13:44:50.571Z,36.60
2018-08-07T13:47:18.693Z,36.70
2018-08-07T13:49:47.004Z,36.60
2018-08-07T13:52:14.983Z,36.50
2018-08-07T13:54:43.107Z,36.70
2018-08-07T13:57:11.247Z,36.80
2018-08-07T13:59:39.366Z,36.70
2018-08-07T14:02:07.516Z,36.90
2018-08-07T14:04:35.631Z,37.00
2018-08-07T14:07:03.765Z,37.00
2018-08-07T14:09:31.870Z,37.00
2018-08-07T14:11:59.994Z,36.90
2018-08-07T14:14:28.131Z,37.00
2018-08-07T14:16:56.258Z,36.90
2018-08-07T14:19:24.398Z,37.00
2018-08-07T14:21:52.524Z,37.30
2018-08-07T14:24:20.658Z,37.50
2018-08-07T14:26:48.807Z,37.50
2018-08-07T14:29:16.919Z,37.40
2018-08-07T14:31:45.059Z,37.70
2018-08-07T14:34:13.187Z,37.70
2018-08-07T14:36:41.386Z,37.70
2018-08-07T14:39:10.511Z,37.90
2018-08-07T14:41:38.699Z,37.80
2018-08-07T14:44:06.919Z,37.80
2018-08-07T14:46:35.097Z,37.80
2018-08-07T14:49:03.230Z,37.60
2018-08-07T14:51:31.358Z,37.50
2018-08-07T14:53:59.507Z,37.70
2018-08-07T14:56:27.608Z,37.90
2018-08-07T14:58:55.956Z,37.90
2018-08-07T15:01:24.297Z,38.00
2018-08-07T15:03:52.707Z,37.70
2018-08-07T15:06:21.083Z,37.30
2018-08-07T15:08:49.384Z,37.30
2018-08-07T15:11:17.722Z,37.40
2018-08-07T15:13:46.082Z,37.40
2018-08-07T15:16:14.394Z,37.40
2018-08-07T15:18:42.938Z,37.30
2018-08-07T15:21:11.310Z,37.50
2018-08-07T15:23:39.622Z,37.50
2018-08-07T15:26:07.923Z,37.70
2018-08-07T15:28:36.291Z,37.70
2018-08-07T15:31:04.617Z,37.70
2018-08-07T15:33:32.968Z,37.70
2018-08-07T15:36:01.280Z,37.70
2018-08-07T15:38:29.629Z,37.50
2018-08-07T15:40:58.039Z,37.60
2018-08-07T15:43:26.835Z,37.50
2018-08-07T15:45:55.400Z,37.40
2018-08-07T15:48:23.769Z,37.50
2018-08-07T15:50:52.779Z,37.60
2018-08-07T15:53:21.091Z,37.50
2018-08-07T15:55:49.476Z,37.30
2018-08-07T15:58:17.831Z,36.90
2018-08-07T16:00:46.156Z,36.80
2018-08-07T16:03:14.659Z,37.00
2018-08-07T16:05:42.987Z,37.10
2018-08-07T16:08:11.372Z,37.10
2018-08-07T16:10:39.750Z,37.20
2018-08-07T16:13:08.118Z,37.20
2018-08-07T16:15:36.463Z,37.00
2018-08-07T16:18:05.175Z,36.80
2018-08-07T16:20:33.610Z,36.90
2018-08-07T16:23:02.082Z,37.00
2018-08-07T16:25:30.776Z,37.00
2018-08-07T16:27:58.989Z,37.20
2018-08-07T16:30:27.314Z,37.30
2018-08-07T16:32:55.383Z,37.10
2018-08-07T16:35:23.565Z,37.10
2018-08-07T16:37:51.758Z,37.00
2018-08-07T16:40:22.003Z,37.00
2018-08-07T16:42:51.107Z,37.00
2018-08-07T16:45:20.353Z,37.00
2018-08-07T16:47:48.629Z,36.80
2018-08-07T16:50:18.485Z,36.80
2018-08-07T16:52:46.863Z,36.60
2018-08-07T16:55:14.985Z,36.70
2018-08-07T16:57:43.246Z,36.70
2018-08-07T17:00:12.444Z,36.80
2018-08-07T17:02:40.787Z,36.70
2018-08-07T17:05:12.414Z,36.60
2018-08-07T17:07:40.555Z,36.50
2018-08-07T17:10:14.491Z,36.50
2018-08-07T17:12:43.870Z,36.50
2018-08-07T17:15:12.479Z,36.40
2018-08-07T17:17:42.297Z,36.40
2018-08-07T17:20:14.356Z,36.40
2018-08-07T17:22:43.825Z,36.40
2018-08-07T17:25:17.617Z,36.40
2018-08-07T17:27:47.078Z,36.30
2018-08-07T17:30:19.413Z,36.20
2018-08-07T17:32:48.575Z,36.20
2018-08-07T17:35:18.771Z,36.00
2018-08-07T17:37:47.962Z,36.00
2018-08-07T17:40:18.238Z,35.90
2018-08-07T17:42:46.832Z,35.90
2018-08-07T17:45:15.652Z,35.70
2018-08-07T17:47:44.992Z,35.70
2018-08-07T17:50:17.138Z,35.60
2018-08-07T17:52:45.427Z,35.60
2018-08-07T17:55:13.856Z,35.50
2018-08-07T17:57:42.268Z,35.40
2018-08-07T18:00:16.628Z,35.40
2018-08-07T18:02:46.302Z,35.20
2018-08-07T18:05:15.225Z,35.10
2018-08-07T18:07:45.778Z,34.90
2018-08-07T18:10:15.775Z,34.80
2018-08-07T18:12:44.158Z,34.70
2018-08-07T18:15:15.029Z,34.50
2018-08-07T18:17:44.881Z,34.40
2018-08-07T18:20:16.645Z,34.30
2018-08-07T18:22:44.797Z,34.10
2018-08-07T18:25:12.961Z,34.10
2018-08-07T18:27:41.154Z,34.00
2018-08-07T18:30:18.339Z,33.80
2018-08-07T18:32:46.713Z,33.70
2018-08-07T18:35:17.902Z,33.50
2018-08-07T18:37:46.028Z,33.40
2018-08-07T18:40:14.136Z,33.00
2018-08-07T18:42:42.255Z,32.80
2018-08-07T18:45:11.932Z,32.70
2018-08-07T18:47:40.911Z,32.60
2018-08-07T18:50:11.140Z,32.40
2018-08-07T18:52:39.263Z,32.30
2018-08-07T18:55:09.399Z,32.30
2018-08-07T18:57:37.584Z,32.20
2018-08-07T19:00:07.777Z,32.20
2018-08-07T19:02:35.950Z,32.10
2018-08-07T19:05:05.339Z,31.90
2018-08-07T19:07:33.450Z,31.80
2018-08-07T19:10:01.606Z,31.70
2018-08-07T19:12:29.899Z,31.50
2018-08-07T19:14:58.076Z,31.40
2018-08-07T19:17:26.454Z,31.30
2018-08-07T19:19:54.592Z,31.20
2018-08-07T19:22:22.759Z,31.00
2018-08-07T19:24:50.900Z,30.90
2018-08-07T19:27:19.108Z,30.70
2018-08-07T19:29:47.263Z,30.50
2018-08-07T19:32:15.545Z,30.40
2018-08-07T19:34:43.866Z,30.30
2018-08-07T19:37:12.443Z,30.20
2018-08-07T19:39:40.583Z,30.10
2018-08-07T19:42:08.762Z,29.90
2018-08-07T19:44:36.947Z,29.80
2018-08-07T19:47:05.464Z,29.80
2018-08-07T19:49:33.817Z,29.70
2018-08-07T19:52:01.949Z,29.60
2018-08-07T19:54:30.075Z,29.50
2018-08-07T19:56:58.349Z,29.40
2018-08-07T19:59:26.467Z,29.40
2018-08-07T20:01:54.610Z,29.30
2018-08-07T20:04:23.046Z,29.20
2018-08-07T20:06:52.806Z,29.00
2018-08-07T20:09:20.967Z,28.90
2018-08-07T20:11:49.581Z,28.70
2018-08-07T20:14:18.185Z,28.50
2018-08-07T20:16:46.376Z,28.40
2018-08-07T20:19:14.518Z,28.20
2018-08-07T20:21:42.719Z,28.10
2018-08-07T20:24:11.641Z,28.00
2018-08-07T20:26:40.024Z,27.90
2018-08-07T20:29:08.249Z,27.90
2018-08-07T20:31:36.626Z,27.80
2018-08-07T20:34:05.124Z,27.80
2018-08-07T20:36:33.793Z,27.80
2018-08-07T20:39:02.291Z,27.60
2018-08-07T20:41:30.454Z,27.50
2018-08-07T20:43:58.912Z,27.40
2018-08-07T20:46:27.635Z,27.30
2018-08-07T20:48:56.385Z,27.20
2018-08-07T20:51:24.915Z,27.10
2018-08-07T20:53:53.327Z,27.00
2018-08-07T20:56:21.641Z,27.00
2018-08-07T20:58:50.497Z,27.00
2018-08-07T21:01:19.228Z,27.00
2018-08-07T21:03:47.592Z,27.10
2018-08-07T21:06:16.273Z,27.20
2018-08-07T21:08:45.090Z,27.10
2018-08-07T21:11:13.301Z,27.00
2018-08-07T21:13:48.139Z,26.90
2018-08-07T21:16:16.342Z,26.90
2018-08-07T21:18:44.625Z,26.80
2018-08-07T21:21:13.247Z,26.80
2018-08-07T21:23:41.393Z,26.70
2018-08-07T21:26:09.662Z,26.50
2018-08-07T21:28:38.018Z,26.40
2018-08-07T21:31:06.518Z,26.40
2018-08-07T21:33:34.638Z,26.30
2018-08-07T21:36:03.309Z,26.20
2018-08-07T21:38:31.784Z,26.10
2018-08-07T21:41:00.063Z,26.10
2018-08-07T21:43:28.595Z,25.90
2018-08-07T21:45:57.029Z,25.90
2018-08-07T21:48:25.338Z,25.90
2018-08-07T21:50:53.932Z,25.90
2018-08-07T21:53:22.649Z,26.00
2018-08-07T21:55:50.840Z,26.00
2018-08-07T21:58:19.622Z,26.10
2018-08-07T22:00:50.191Z,26.00
2018-08-07T22:03:18.531Z,26.00
2018-08-07T22:05:47.232Z,25.90
2018-08-07T22:08:15.843Z,25.90
2018-08-07T22:10:44.097Z,25.90
2018-08-07T22:13:12.170Z,25.90
2018-08-07T22:15:40.285Z,25.90
2018-08-07T22:18:09.859Z,25.90
2018-08-07T22:20:38.010Z,25.90
2018-08-07T22:23:06.703Z,25.90
2018-08-07T22:25:34.926Z,25.90
2018-08-07T22:28:03.075Z,25.90
2018-08-07T22:30:31.182Z,25.70
2018-08-07T22:32:59.313Z,25.60
2018-08-07T22:35:27.430Z,25.50
2018-08-07T22:37:55.604Z,25.40
2018-08-07T22:40:23.697Z,25.30
2018-08-07T22:42:51.883Z,25.20
2018-08-07T22:45:19.995Z,25.20
2018-08-07T22:47:48.144Z,25.20
2018-08-07T22:50:17.614Z,25.20
2018-08-07T22:52:45.838Z,25.00
2018-08-07T22:55:17.546Z,25.00
2018-08-07T22:57:45.674Z,24.90
2018-08-07T23:00:15.409Z,24.90
2018-08-07T23:02:43.480Z,24.80
2018-08-07T23:05:12.286Z,24.80
2018-08-07T23:07:40.665Z,24.80
2018-08-07T23:10:18.250Z,24.60
2018-08-07T23:12:46.440Z,24.40
2018-08-07T23:15:16.643Z,24.40
2018-08-07T23:17:45.238Z,24.40
2018-08-07T23:20:14.833Z,24.50
2018-08-07T23:22:43.353Z,24.60
2018-08-07T23:25:11.827Z,24.60
2018-08-07T23:27:39.949Z,24.50
2018-08-07T23:30:10.338Z,24.40
2018-08-07T23:32:38.462Z,24.40
2018-08-07T23:35:06.610Z,24.40
2018-08-07T23:37:34.914Z,24.40
2018-08-07T23:40:03.284Z,24.40
2018-08-07T23:42:31.429Z,24.30
2018-08-07T23:45:00.291Z,24.20
2018-08-07T23:47:28.431Z,24.20
2018-08-07T23:49:56.571Z,24.20
2018-08-07T23:52:25.036Z,24.10
2018-08-07T23:54:53.159Z,24.10
2018-08-07T23:57:21.274Z,24.10
2018-08-07T23:59:49.414Z,24.20
